KRDR/RDR METAR and TAF weather

Enter ICAO airport designator
Station Type Date Time Source
KRDR METAR 2021/03/01 03:56 UTC NOAA

KRDR 010356Z 02009KT 3SM -SN SCT049 BKN055 OVC070 M11/M13 A3015 RMK AO2A SLP235 P0000 T11061133 $


Station Type Date Time Source
KRDR Decoded METAR 2021/03/01 03:56 UTC NOAA

Grand Forks Air Force Base, ND, United States (KRDR) 47-58N 097-24W 278M
Feb 28, 2021 - 10:56 PM EST / 2021.03.01 0356 UTC
Wind: from the NNE (020 degrees) at 10 MPH (9 KT):0
Visibility: 3 mile(s):0
Sky conditions: overcast
Weather: light snow
Precipitation last hour: A trace
Temperature: 12.9 F (-10.6 C)
Windchill: 0 F (-18 C):1
Dew Point: 8.1 F (-13.3 C)
Relative Humidity: 80%
Pressure (altimeter): 30.15 in. Hg (1020 hPa)
ob: KRDR 010356Z 02009KT 3SM -SN SCT049 BKN055 OVC070 M11/M13 A3015 RMK AO2A SLP235 P0000 T11061133
cycle: 4

Station Type Date Time Source
KRDR TAF 2021/03/01 02:09 UTC NOAA

TAF KRDR 010200Z 0102/0208 36009KT 4800 -SN OVC020 620502 QNH3009INS
TEMPO 0102/0106 BKN015
BECMG 0115/0116 17012G18KT 9999 NSW SCT060 BKN080 QNH3001INS
BECMG 0204/0205 19012KT 9999 SCT110 QNH2977INS TXM07/0123Z TNM18/0111Z

Example: see airport list